Time;durP1;ratioP1;P1;durP2;ratioP2;P2;SDS_P1;SDS_P2;PMS_P1;PMS_P2;Temp;Humidity;BMP_temperature;BMP_pressure;BME280_temperature;BME280_humidity;BME280_pressure;Samples;Min_cycle;Max_cycle;Signal;HPM_P1;HPM_P2
2021/08/28 00:01:12;;;;;;;9.25;5.63;;;;;;;;;;5004608;28;20142;-78
2021/08/28 00:03:40;;;;;;;10.38;5.53;;;;;;;;;;4979096;28;20043;-78
2021/08/28 00:06:07;;;;;;;10.25;5.40;;;;;;;;;;5005610;28;20759;-78
2021/08/28 00:08:34;;;;;;;10.70;5.18;;;;;;;;;;4989618;28;20100;-78
2021/08/28 00:11:01;;;;;;;10.30;5.85;;;;;;;;;;4999164;28;20352;-79
2021/08/28 00:13:28;;;;;;;10.25;6.00;;;;;;;;;;4976457;28;20140;-79
2021/08/28 00:15:55;;;;;;;17.48;7.90;;;;;;;;;;4979393;28;20598;-78
2021/08/28 00:18:24;;;;;;;12.00;6.32;;;;;;;;;;5005432;28;20064;-78
2021/08/28 00:20:51;;;;;;;11.73;5.70;;;;;;;;;;4982718;28;20626;-78
2021/08/28 00:23:18;;;;;;;10.95;6.35;;;;;;;;;;5006179;28;20136;-79
2021/08/28 00:25:45;;;;;;;10.73;6.65;;;;;;;;;;4989493;28;20610;-79
2021/08/28 00:28:13;;;;;;;11.90;6.30;;;;;;;;;;4992236;28;20673;-79
2021/08/28 00:30:41;;;;;;;14.93;5.80;;;;;;;;;;5004590;28;20850;-79
2021/08/28 00:33:12;;;;;;;11.38;5.65;;;;;;;;;;4988582;28;20071;-79
2021/08/28 00:35:40;;;;;;;9.35;5.78;;;;;;;;;;5003998;28;20152;-78
2021/08/28 00:38:07;;;;;;;10.68;6.55;;;;;;;;;;4980656;28;20168;-78
2021/08/28 00:40:35;;;;;;;10.57;6.72;;;;;;;;;;4985512;28;20132;-78
2021/08/28 00:43:03;;;;;;;11.52;6.72;;;;;;;;;;5001982;28;20075;-79
2021/08/28 00:45:35;;;;;;;9.20;6.00;;;;;;;;;;4987597;28;20069;-79
2021/08/28 00:48:04;;;;;;;14.65;6.63;;;;;;;;;;4988385;28;20077;-78
2021/08/28 00:50:33;;;;;;;10.88;5.70;;;;;;;;;;4997166;28;20050;-78
2021/08/28 00:53:02;;;;;;;10.45;5.97;;;;;;;;;;4989046;28;20788;-78
2021/08/28 00:55:32;;;;;;;14.55;5.70;;;;;;;;;;5000268;28;20050;-78
2021/08/28 00:58:00;;;;;;;11.23;6.00;;;;;;;;;;4986279;28;20106;-78
2021/08/28 01:00:27;;;;;;;12.75;6.03;;;;;;;;;;5005215;28;20103;-78
2021/08/28 01:02:56;;;;;;;9.57;5.68;;;;;;;;;;5003020;28;20863;-78
2021/08/28 01:05:26;;;;;;;11.30;5.72;;;;;;;;;;4986911;28;20046;-78
2021/08/28 01:08:13;;;;;;;9.13;5.95;;;;;;;;;;5002960;28;20464;-78
2021/08/28 01:10:43;;;;;;;9.93;5.30;;;;;;;;;;4996421;28;20046;-80
2021/08/28 01:13:12;;;;;;;12.90;6.55;;;;;;;;;;5010146;28;20053;-80
2021/08/28 01:15:40;;;;;;;12.98;5.72;;;;;;;;;;4992684;28;20092;-81
2021/08/28 01:18:11;;;;;;;11.77;6.93;;;;;;;;;;5009011;28;20546;-80
2021/08/28 01:20:46;;;;;;;15.25;6.78;;;;;;;;;;5003726;28;20793;-80
2021/08/28 01:23:14;;;;;;;9.57;6.22;;;;;;;;;;5003888;28;20196;-80
2021/08/28 01:25:42;;;;;;;16.05;5.75;;;;;;;;;;4989695;28;20149;-81
2021/08/28 01:28:11;;;;;;;16.00;6.38;;;;;;;;;;4996210;28;20633;-81
2021/08/28 01:30:43;;;;;;;10.05;5.80;;;;;;;;;;5007116;28;20077;-80
2021/08/28 01:33:11;;;;;;;13.18;6.65;;;;;;;;;;5004623;28;20086;-80
2021/08/28 01:35:41;;;;;;;12.20;6.45;;;;;;;;;;4999216;28;20233;-80
2021/08/28 01:38:09;;;;;;;14.73;6.30;;;;;;;;;;5005370;28;20050;-80
2021/08/28 01:40:37;;;;;;;10.43;6.32;;;;;;;;;;4997728;28;20129;-80
2021/08/28 01:43:05;;;;;;;14.57;6.35;;;;;;;;;;4987504;28;20056;-80
2021/08/28 01:45:33;;;;;;;13.00;6.13;;;;;;;;;;4986195;28;20130;-80
2021/08/28 01:48:00;;;;;;;17.65;6.90;;;;;;;;;;4998905;28;20061;-80
2021/08/28 01:50:28;;;;;;;14.98;6.53;;;;;;;;;;5000165;28;20189;-81
2021/08/28 01:52:55;;;;;;;14.30;6.45;;;;;;;;;;4998559;28;20073;-80
2021/08/28 01:55:23;;;;;;;16.90;5.95;;;;;;;;;;5010788;28;20111;-80
2021/08/28 01:57:51;;;;;;;10.48;5.70;;;;;;;;;;4992751;28;20125;-80
2021/08/28 02:00:18;;;;;;;11.23;5.78;;;;;;;;;;4992229;28;20092;-80
2021/08/28 02:02:46;;;;;;;14.15;6.00;;;;;;;;;;4999567;28;20046;-80
2021/08/28 02:05:14;;;;;;;13.18;6.22;;;;;;;;;;4993741;28;20065;-80
2021/08/28 02:07:49;;;;;;;11.10;5.93;;;;;;;;;;5011771;28;20074;-80
2021/08/28 02:10:16;;;;;;;13.23;5.95;;;;;;;;;;5008206;28;20662;-80
2021/08/28 02:12:47;;;;;;;11.68;6.20;;;;;;;;;;5009038;28;20118;-80
2021/08/28 02:15:19;;;;;;;11.90;5.65;;;;;;;;;;5006173;28;20078;-80
2021/08/28 02:17:51;;;;;;;11.30;6.88;;;;;;;;;;5001623;28;20077;-80
2021/08/28 02:20:21;;;;;;;12.23;5.88;;;;;;;;;;5009013;28;20391;-81
2021/08/28 02:22:49;;;;;;;11.82;5.53;;;;;;;;;;4988522;28;20129;-80
2021/08/28 02:25:37;;;;;;;12.05;5.63;;;;;;;;;;5010060;28;20074;-80
2021/08/28 02:28:06;;;;;;;11.18;5.38;;;;;;;;;;4995749;28;20045;-79
2021/08/28 02:30:34;;;;;;;11.48;6.18;;;;;;;;;;5010591;28;20125;-80
2021/08/28 02:33:05;;;;;;;15.35;5.63;;;;;;;;;;5005577;28;20193;-80
2021/08/28 02:35:33;;;;;;;12.23;6.60;;;;;;;;;;4996117;28;20052;-80
2021/08/28 02:38:01;;;;;;;11.82;6.55;;;;;;;;;;5010642;28;20460;-80
2021/08/28 02:40:30;;;;;;;12.60;5.63;;;;;;;;;;5006817;28;20558;-80
2021/08/28 02:42:58;;;;;;;11.95;6.22;;;;;;;;;;5013630;28;20137;-79
2021/08/28 02:45:27;;;;;;;14.63;6.70;;;;;;;;;;4994467;28;20088;-80
2021/08/28 02:47:55;;;;;;;16.58;6.65;;;;;;;;;;5012815;28;20053;-80
2021/08/28 02:50:24;;;;;;;12.43;6.88;;;;;;;;;;5002393;28;20061;-80
2021/08/28 02:52:52;;;;;;;14.40;7.30;;;;;;;;;;5012241;28;20046;-80
2021/08/28 02:55:19;;;;;;;14.15;6.82;;;;;;;;;;4996085;28;20050;-80
2021/08/28 02:57:49;;;;;;;12.95;7.03;;;;;;;;;;4998469;28;20571;-79
2021/08/28 03:00:17;;;;;;;18.35;7.15;;;;;;;;;;4994511;28;20073;-80
2021/08/28 03:02:46;;;;;;;12.98;7.47;;;;;;;;;;4990239;28;20056;-80
2021/08/28 03:05:14;;;;;;;15.60;7.00;;;;;;;;;;5013878;28;20046;-80
2021/08/28 03:07:41;;;;;;;14.27;7.35;;;;;;;;;;4994458;28;20152;-79
2021/08/28 03:10:10;;;;;;;13.35;7.18;;;;;;;;;;5004269;28;20077;-79
2021/08/28 03:12:38;;;;;;;15.10;7.05;;;;;;;;;;4993154;28;20052;-80
2021/08/28 03:15:06;;;;;;;15.07;7.53;;;;;;;;;;4995244;28;20068;-79
2021/08/28 03:17:33;;;;;;;14.80;6.93;;;;;;;;;;4985832;28;20104;-80
2021/08/28 03:20:01;;;;;;;19.42;7.55;;;;;;;;;;5007257;28;20129;-79
2021/08/28 03:22:30;;;;;;;16.17;7.35;;;;;;;;;;4983585;28;20108;-79
2021/08/28 03:24:57;;;;;;;13.98;6.88;;;;;;;;;;5006309;28;20498;-79
2021/08/28 03:27:24;;;;;;;29.88;8.27;;;;;;;;;;5003284;28;20092;-80
2021/08/28 03:29:53;;;;;;;15.30;8.40;;;;;;;;;;4988916;28;20046;-80
2021/08/28 03:32:20;;;;;;;20.73;8.63;;;;;;;;;;5009735;28;20078;-80
2021/08/28 03:34:48;;;;;;;22.92;9.05;;;;;;;;;;4994325;28;20479;-79
2021/08/28 03:37:15;;;;;;;15.40;9.20;;;;;;;;;;5010747;28;20088;-80
2021/08/28 03:39:43;;;;;;;23.05;9.98;;;;;;;;;;4993926;28;20138;-79
2021/08/28 03:42:10;;;;;;;15.20;9.20;;;;;;;;;;4991737;28;20126;-79
2021/08/28 03:44:38;;;;;;;15.90;7.57;;;;;;;;;;4993748;28;20077;-79
2021/08/28 03:47:06;;;;;;;17.13;8.43;;;;;;;;;;4992061;28;20045;-79
2021/08/28 03:49:33;;;;;;;20.05;8.98;;;;;;;;;;5011791;28;20762;-80
2021/08/28 03:52:00;;;;;;;18.60;9.07;;;;;;;;;;4989677;28;20586;-80
2021/08/28 03:54:28;;;;;;;21.58;10.55;;;;;;;;;;5008046;28;20115;-79
2021/08/28 03:56:56;;;;;;;23.52;10.88;;;;;;;;;;5009829;28;20080;-79
2021/08/28 03:59:23;;;;;;;21.83;11.00;;;;;;;;;;4992912;28;20133;-79
2021/08/28 04:01:50;;;;;;;26.17;13.00;;;;;;;;;;4988373;28;20097;-79
2021/08/28 04:04:18;;;;;;;27.00;12.50;;;;;;;;;;5011039;28;20049;-79
2021/08/28 04:06:45;;;;;;;33.08;14.13;;;;;;;;;;5005815;28;20081;-79
2021/08/28 04:09:12;;;;;;;32.13;13.48;;;;;;;;;;4992928;28;20550;-79
2021/08/28 04:11:40;;;;;;;20.75;9.98;;;;;;;;;;5005965;28;20137;-79
2021/08/28 04:14:07;;;;;;;26.45;11.77;;;;;;;;;;4992133;28;20076;-79
2021/08/28 04:16:34;;;;;;;29.63;13.13;;;;;;;;;;5000674;28;20058;-79
2021/08/28 04:19:01;;;;;;;27.50;14.13;;;;;;;;;;5000399;28;20042;-79
2021/08/28 04:21:28;;;;;;;33.55;15.73;;;;;;;;;;5005632;28;20144;-79
2021/08/28 04:23:55;;;;;;;36.67;15.48;;;;;;;;;;5010066;28;20103;-79
2021/08/28 04:26:25;;;;;;;28.02;14.98;;;;;;;;;;5009190;28;20495;-79
2021/08/28 04:28:54;;;;;;;33.42;12.57;;;;;;;;;;5009482;28;20137;-79
2021/08/28 04:31:22;;;;;;;33.20;15.95;;;;;;;;;;5005735;28;20160;-78
2021/08/28 04:33:49;;;;;;;34.10;16.73;;;;;;;;;;4986841;28;20514;-79
2021/08/28 04:36:16;;;;;;;37.22;16.88;;;;;;;;;;5003992;28;20081;-79
2021/08/28 04:38:43;;;;;;;41.75;18.23;;;;;;;;;;4990866;28;20141;-78
2021/08/28 04:41:10;;;;;;;36.67;16.50;;;;;;;;;;4992198;28;20125;-79
2021/08/28 04:43:37;;;;;;;39.67;17.00;;;;;;;;;;5002458;28;20132;-79
2021/08/28 04:46:05;;;;;;;27.00;13.18;;;;;;;;;;4991735;28;20069;-79
2021/08/28 04:48:32;;;;;;;31.48;13.98;;;;;;;;;;4991023;28;20639;-79
2021/08/28 04:50:59;;;;;;;31.80;13.80;;;;;;;;;;5008726;28;20129;-79
2021/08/28 04:53:26;;;;;;;39.13;15.05;;;;;;;;;;5007829;28;20140;-79
2021/08/28 04:55:54;;;;;;;31.58;15.63;;;;;;;;;;4991777;28;20469;-79
2021/08/28 04:58:21;;;;;;;41.13;15.27;;;;;;;;;;5008352;28;20144;-80
2021/08/28 05:00:48;;;;;;;33.35;15.45;;;;;;;;;;5008060;28;20658;-80
2021/08/28 05:03:15;;;;;;;31.25;14.18;;;;;;;;;;5002307;28;20103;-80
2021/08/28 05:05:43;;;;;;;35.30;15.57;;;;;;;;;;4996818;28;20108;-80
2021/08/28 05:08:10;;;;;;;33.65;16.55;;;;;;;;;;5009317;28;20660;-79
2021/08/28 05:10:37;;;;;;;37.15;15.82;;;;;;;;;;5008708;28;20129;-79
2021/08/28 05:13:04;;;;;;;34.72;15.75;;;;;;;;;;5009045;28;20487;-79
2021/08/28 05:15:31;;;;;;;34.17;15.38;;;;;;;;;;4991154;28;20538;-79
2021/08/28 05:17:58;;;;;;;37.70;16.88;;;;;;;;;;4987936;28;20133;-79
2021/08/28 05:20:26;;;;;;;38.45;15.70;;;;;;;;;;4988793;28;20136;-79
2021/08/28 05:22:54;;;;;;;32.35;16.73;;;;;;;;;;4987996;28;20073;-79
2021/08/28 05:25:21;;;;;;;33.72;16.10;;;;;;;;;;5004329;28;20049;-79
2021/08/28 05:27:48;;;;;;;34.33;15.50;;;;;;;;;;4986104;28;20081;-80
2021/08/28 05:30:16;;;;;;;38.10;16.27;;;;;;;;;;4986979;28;20586;-80
2021/08/28 05:32:45;;;;;;;36.92;15.73;;;;;;;;;;5003202;28;20104;-79
2021/08/28 05:35:13;;;;;;;34.70;16.13;;;;;;;;;;5002084;28;20050;-79
2021/08/28 05:37:41;;;;;;;36.20;17.20;;;;;;;;;;5000787;28;20045;-80
2021/08/28 05:40:09;;;;;;;35.15;16.15;;;;;;;;;;4986435;28;20083;-78
2021/08/28 05:42:37;;;;;;;42.47;17.70;;;;;;;;;;5005848;28;20092;-80
2021/08/28 05:45:05;;;;;;;40.72;18.17;;;;;;;;;;4987269;28;20088;-80
2021/08/28 05:47:33;;;;;;;42.25;20.90;;;;;;;;;;5003144;28;20049;-80
2021/08/28 05:50:00;;;;;;;42.20;20.00;;;;;;;;;;4987388;28;20128;-77
2021/08/28 05:52:27;;;;;;;44.78;19.90;;;;;;;;;;5000562;28;20062;-78
2021/08/28 05:54:55;;;;;;;46.85;20.50;;;;;;;;;;5006871;28;20157;-78
2021/08/28 05:57:22;;;;;;;46.90;21.25;;;;;;;;;;4987386;28;20578;-78
2021/08/28 05:59:49;;;;;;;44.22;19.67;;;;;;;;;;4986016;28;20132;-78
2021/08/28 06:02:16;;;;;;;46.20;20.73;;;;;;;;;;4980677;28;20141;-78
2021/08/28 06:04:43;;;;;;;46.47;20.33;;;;;;;;;;5000235;28;20054;-78
2021/08/28 06:07:11;;;;;;;40.63;20.58;;;;;;;;;;5000766;28;20530;-78
2021/08/28 06:09:38;;;;;;;50.28;22.77;;;;;;;;;;5004867;28;20506;-78
2021/08/28 06:12:06;;;;;;;47.90;22.17;;;;;;;;;;5000324;28;20570;-78
2021/08/28 06:14:33;;;;;;;42.17;21.20;;;;;;;;;;4998010;28;20060;-78
2021/08/28 06:17:00;;;;;;;46.05;21.35;;;;;;;;;;4984751;28;20069;-78
2021/08/28 06:19:27;;;;;;;52.25;21.73;;;;;;;;;;4989657;28;20104;-79
2021/08/28 06:21:54;;;;;;;53.13;21.73;;;;;;;;;;4985837;28;20046;-79
2021/08/28 06:24:21;;;;;;;41.40;19.90;;;;;;;;;;5004824;28;20661;-79
2021/08/28 06:26:48;;;;;;;44.22;21.13;;;;;;;;;;5006832;28;20064;-78
2021/08/28 06:29:16;;;;;;;47.10;20.10;;;;;;;;;;5001859;28;20053;-78
2021/08/28 06:31:43;;;;;;;44.10;20.23;;;;;;;;;;5001880;28;20070;-79
2021/08/28 06:34:10;;;;;;;39.72;20.58;;;;;;;;;;4983830;28;20065;-79
2021/08/28 06:36:41;;;;;;;39.40;18.48;;;;;;;;;;5001825;28;20058;-79
2021/08/28 06:39:09;;;;;;;39.20;18.48;;;;;;;;;;5004707;28;20511;-79
2021/08/28 06:41:36;;;;;;;45.28;20.42;;;;;;;;;;5002453;28;20050;-79
2021/08/28 06:44:03;;;;;;;43.85;19.52;;;;;;;;;;5003569;28;20038;-79
2021/08/28 06:46:30;;;;;;;39.20;19.45;;;;;;;;;;5007574;28;20049;-78
2021/08/28 06:48:58;;;;;;;37.47;18.67;;;;;;;;;;5007867;28;20054;-79
2021/08/28 06:51:25;;;;;;;32.97;18.13;;;;;;;;;;5006690;28;20052;-78
2021/08/28 06:53:52;;;;;;;39.75;17.80;;;;;;;;;;5008433;28;20124;-78
2021/08/28 06:56:19;;;;;;;30.60;17.75;;;;;;;;;;4988487;28;20090;-78
2021/08/28 06:58:50;;;;;;;32.88;18.60;;;;;;;;;;4990133;28;20143;-78
2021/08/28 07:01:17;;;;;;;35.00;17.33;;;;;;;;;;4988585;28;20516;-79
2021/08/28 07:03:45;;;;;;;35.50;19.48;;;;;;;;;;4988964;28;20054;-78
2021/08/28 07:06:12;;;;;;;39.17;18.08;;;;;;;;;;5005990;28;20057;-78
2021/08/28 07:08:39;;;;;;;33.28;17.50;;;;;;;;;;5005819;28;20473;-78
2021/08/28 07:11:07;;;;;;;40.83;19.58;;;;;;;;;;5005605;28;20110;-78
2021/08/28 07:13:34;;;;;;;31.92;17.85;;;;;;;;;;5005935;28;20057;-79
2021/08/28 07:16:03;;;;;;;37.65;19.02;;;;;;;;;;4985700;28;20132;-79
2021/08/28 07:18:32;;;;;;;29.95;17.30;;;;;;;;;;5010525;28;20081;-79
2021/08/28 07:20:59;;;;;;;36.25;17.17;;;;;;;;;;5012211;28;20564;-80
2021/08/28 07:23:27;;;;;;;35.90;18.02;;;;;;;;;;4994549;28;20128;-79
2021/08/28 07:25:54;;;;;;;40.10;17.73;;;;;;;;;;4995199;28;20108;-82
2021/08/28 07:28:25;;;;;;;35.03;16.40;;;;;;;;;;4997206;28;20100;-84
2021/08/28 07:30:54;;;;;;;31.73;17.80;;;;;;;;;;4989264;28;20080;-85
2021/08/28 07:33:21;;;;;;;27.33;16.17;;;;;;;;;;4997298;28;20077;-83
2021/08/28 07:35:48;;;;;;;26.23;15.98;;;;;;;;;;4996140;28;20104;-79
2021/08/28 07:38:16;;;;;;;31.00;16.35;;;;;;;;;;4995614;28;20772;-79
2021/08/28 07:40:48;;;;;;;34.25;17.33;;;;;;;;;;4991597;28;20100;-83
2021/08/28 07:43:15;;;;;;;25.88;14.02;;;;;;;;;;5004708;28;20097;-80
2021/08/28 07:45:43;;;;;;;24.77;14.65;;;;;;;;;;4978444;28;20137;-82
2021/08/28 07:48:10;;;;;;;24.60;13.95;;;;;;;;;;4985654;28;20142;-82
2021/08/28 07:50:43;;;;;;;25.58;14.40;;;;;;;;;;4981348;28;20128;-83
2021/08/28 07:53:10;;;;;;;22.10;13.52;;;;;;;;;;4991221;28;20612;-85
2021/08/28 07:55:37;;;;;;;25.55;13.23;;;;;;;;;;4993501;28;20054;-80
2021/08/28 07:58:05;;;;;;;32.85;13.23;;;;;;;;;;4984712;28;20133;-80
2021/08/28 08:00:32;;;;;;;22.48;12.23;;;;;;;;;;4980482;28;20995;-77
2021/08/28 08:03:00;;;;;;;20.20;11.88;;;;;;;;;;5011557;28;20073;-80
2021/08/28 08:05:27;;;;;;;24.25;11.40;;;;;;;;;;4995999;28;20057;-81
2021/08/28 08:07:55;;;;;;;21.25;12.05;;;;;;;;;;4989983;28;20085;-79
2021/08/28 08:10:23;;;;;;;96.85;19.88;;;;;;;;;;5006746;28;20120;-79
2021/08/28 08:12:50;;;;;;;18.02;10.55;;;;;;;;;;5010009;28;20088;-78
2021/08/28 08:15:18;;;;;;;14.77;10.00;;;;;;;;;;5012549;28;20136;-78
2021/08/28 08:17:45;;;;;;;22.23;10.27;;;;;;;;;;4993421;28;20068;-78
2021/08/28 08:20:13;;;;;;;22.65;10.20;;;;;;;;;;5005878;28;20080;-78
2021/08/28 08:22:40;;;;;;;17.83;10.43;;;;;;;;;;5003430;28;20152;-78
2021/08/28 08:25:08;;;;;;;17.90;10.13;;;;;;;;;;4992340;28;20085;-78
2021/08/28 08:27:35;;;;;;;21.65;11.40;;;;;;;;;;4991674;28;20053;-78
2021/08/28 08:30:02;;;;;;;17.58;10.35;;;;;;;;;;4992176;28;20136;-79
2021/08/28 08:32:30;;;;;;;19.63;11.25;;;;;;;;;;5001834;28;20086;-78
2021/08/28 08:34:57;;;;;;;19.55;11.25;;;;;;;;;;4991692;28;20129;-80
2021/08/28 08:37:25;;;;;;;19.98;8.90;;;;;;;;;;4990531;28;20089;-79
2021/08/28 08:39:55;;;;;;;20.35;8.27;;;;;;;;;;5003887;28;20133;-81
2021/08/28 08:42:24;;;;;;;13.18;7.60;;;;;;;;;;5010685;28;20104;-83
2021/08/28 08:44:53;;;;;;;19.17;7.75;;;;;;;;;;4994868;28;20056;-81
2021/08/28 08:47:24;;;;;;;16.20;8.20;;;;;;;;;;4991329;28;20096;-82
2021/08/28 08:49:53;;;;;;;11.10;6.93;;;;;;;;;;5004947;28;20089;-83
2021/08/28 08:52:22;;;;;;;11.68;6.20;;;;;;;;;;5006345;28;20081;-87
2021/08/28 08:54:50;;;;;;;8.55;5.07;;;;;;;;;;5012257;28;20077;-87
2021/08/28 08:57:24;;;;;;;10.10;5.00;;;;;;;;;;4993591;28;20129;-88
2021/08/28 08:59:52;;;;;;;8.80;4.50;;;;;;;;;;4985397;28;20136;-82
2021/08/28 09:02:21;;;;;;;9.90;5.35;;;;;;;;;;4987201;28;20059;-83
2021/08/28 09:04:48;;;;;;;7.35;4.22;;;;;;;;;;4991346;28;20046;-82
2021/08/28 09:07:16;;;;;;;6.72;4.40;;;;;;;;;;5005926;28;20058;-83
2021/08/28 09:09:43;;;;;;;8.82;4.38;;;;;;;;;;5010656;28;20046;-83
2021/08/28 09:12:12;;;;;;;8.40;4.93;;;;;;;;;;4992137;28;20136;-81
2021/08/28 09:14:40;;;;;;;8.88;4.55;;;;;;;;;;4985656;28;20072;-79
2021/08/28 09:17:13;;;;;;;9.63;4.55;;;;;;;;;;4987020;28;20134;-80
2021/08/28 09:19:43;;;;;;;9.23;4.88;;;;;;;;;;4990093;28;20050;-82
2021/08/28 09:22:33;;;;;;;8.60;4.95;;;;;;;;;;4999921;28;20564;-79
2021/08/28 09:25:03;;;;;;;8.00;5.25;;;;;;;;;;4971267;28;20193;-78
2021/08/28 09:27:41;;;;;;;8.38;4.72;;;;;;;;;;4978451;28;20058;-78
2021/08/28 09:30:15;;;;;;;8.27;4.80;;;;;;;;;;4998676;28;20057;-76
2021/08/28 09:32:57;;;;;;;12.57;6.15;;;;;;;;;;4981532;28;20133;-84
2021/08/28 09:35:27;;;;;;;12.18;6.20;;;;;;;;;;5002779;28;20064;-83
2021/08/28 09:38:10;;;;;;;10.35;6.28;;;;;;;;;;4987914;28;20142;-84
2021/08/28 09:40:41;;;;;;;13.55;7.30;;;;;;;;;;5003997;28;20077;-84
2021/08/28 09:43:09;;;;;;;11.20;6.28;;;;;;;;;;4984628;28;20133;-78
2021/08/28 09:45:36;;;;;;;13.43;6.90;;;;;;;;;;4978719;28;20077;-78
2021/08/28 09:48:06;;;;;;;11.68;6.75;;;;;;;;;;4997052;28;20185;-77
2021/08/28 09:50:35;;;;;;;12.95;6.63;;;;;;;;;;4979913;28;20052;-77
2021/08/28 09:53:10;;;;;;;10.65;6.93;;;;;;;;;;4998012;28;20073;-77
2021/08/28 09:55:39;;;;;;;11.70;6.50;;;;;;;;;;5002320;28;20084;-82
2021/08/28 09:58:11;;;;;;;9.27;6.35;;;;;;;;;;5003469;28;20058;-81
2021/08/28 10:00:45;;;;;;;11.15;5.90;;;;;;;;;;4986913;28;20109;-82
2021/08/28 10:03:13;;;;;;;10.60;5.95;;;;;;;;;;4981590;28;20097;-78
2021/08/28 10:05:45;;;;;;;14.02;5.85;;;;;;;;;;4981874;28;20445;-78
2021/08/28 10:08:13;;;;;;;8.70;5.43;;;;;;;;;;4976507;28;20065;-78
2021/08/28 10:10:40;;;;;;;12.25;5.47;;;;;;;;;;4996886;28;20625;-78
2021/08/28 10:13:28;;;;;;;10.00;5.53;;;;;;;;;;4995747;28;20422;-78
2021/08/28 10:15:56;;;;;;;9.25;5.40;;;;;;;;;;4998593;28;20956;-78
2021/08/28 10:18:25;;;;;;;9.77;5.20;;;;;;;;;;4978418;28;20050;-79
2021/08/28 10:20:58;;;;;;;11.00;4.82;;;;;;;;;;4983134;28;20089;-79
2021/08/28 10:23:27;;;;;;;9.50;4.55;;;;;;;;;;4979092;28;20116;-79
2021/08/28 10:25:54;;;;;;;7.35;4.28;;;;;;;;;;4995501;28;20058;-78
2021/08/28 10:28:22;;;;;;;9.40;4.85;;;;;;;;;;4997549;28;20133;-79
2021/08/28 10:30:49;;;;;;;7.28;4.88;;;;;;;;;;4982020;28;20061;-79
2021/08/28 10:33:20;;;;;;;10.15;4.50;;;;;;;;;;4980415;28;20136;-81
2021/08/28 10:35:48;;;;;;;8.38;4.55;;;;;;;;;;4982192;28;20045;-79
2021/08/28 10:38:19;;;;;;;8.98;4.88;;;;;;;;;;4986415;28;20144;-80
2021/08/28 10:40:52;;;;;;;6.38;4.20;;;;;;;;;;4998949;28;20070;-79
2021/08/28 10:43:20;;;;;;;7.40;4.15;;;;;;;;;;5001108;28;20081;-80
2021/08/28 10:45:48;;;;;;;11.65;5.30;;;;;;;;;;4980309;28;20069;-78
2021/08/28 10:48:15;;;;;;;6.25;3.95;;;;;;;;;;4979542;28;20092;-79
2021/08/28 10:50:43;;;;;;;11.25;4.47;;;;;;;;;;4998923;28;20691;-79
2021/08/28 10:53:11;;;;;;;4.93;3.53;;;;;;;;;;4984829;28;20050;-79
2021/08/28 10:55:40;;;;;;;6.47;3.72;;;;;;;;;;5000953;28;20447;-80
2021/08/28 10:58:10;;;;;;;6.35;3.50;;;;;;;;;;5001218;28;20196;-78
2021/08/28 11:00:41;;;;;;;5.85;3.72;;;;;;;;;;5001863;28;20050;-78
2021/08/28 11:03:43;;;;;;;7.25;2.90;;;;;;;;;;4983524;28;20042;-79
2021/08/28 11:06:29;;;;;;;5.47;3.42;;;;;;;;;;4937055;28;20049;-79
2021/08/28 11:09:00;;;;;;;7.00;3.63;;;;;;;;;;4983528;28;20093;-79
2021/08/28 11:11:41;;;;;;;4.47;3.05;;;;;;;;;;4981652;28;20048;-80
2021/08/28 11:14:09;;;;;;;5.28;3.30;;;;;;;;;;4998405;28;20169;-80
2021/08/28 11:16:43;;;;;;;4.53;2.88;;;;;;;;;;4982361;28;20042;-80
2021/08/28 11:19:26;;;;;;;3.70;2.55;;;;;;;;;;4999625;28;20046;-81
2021/08/28 11:21:54;;;;;;;3.85;2.40;;;;;;;;;;4980475;28;20082;-79
2021/08/28 11:24:25;;;;;;;5.10;2.75;;;;;;;;;;4979709;28;20054;-81
2021/08/28 11:26:53;;;;;;;4.90;3.20;;;;;;;;;;4982837;28;20081;-80
2021/08/28 11:29:31;;;;;;;4.55;2.42;;;;;;;;;;4998970;28;20138;-80
2021/08/28 11:32:11;;;;;;;5.07;2.40;;;;;;;;;;5001456;28;20712;-80
2021/08/28 11:34:43;;;;;;;4.38;2.45;;;;;;;;;;4984474;28;20129;-82
2021/08/28 11:37:29;;;;;;;3.17;2.03;;;;;;;;;;4986070;28;20049;-81
2021/08/28 11:39:58;;;;;;;9.70;2.35;;;;;;;;;;5002922;28;20064;-82
2021/08/28 11:42:27;;;;;;;5.10;2.50;;;;;;;;;;5003177;28;20065;-83
2021/08/28 11:44:55;;;;;;;4.88;2.10;;;;;;;;;;4985528;28;20617;-83
2021/08/28 11:47:23;;;;;;;5.18;2.47;;;;;;;;;;5004432;28;20054;-79
2021/08/28 11:49:51;;;;;;;4.30;2.10;;;;;;;;;;4997913;28;20053;-80
2021/08/28 11:52:22;;;;;;;3.53;2.35;;;;;;;;;;4980528;28;20073;-84
2021/08/28 11:54:50;;;;;;;5.13;2.35;;;;;;;;;;4987275;28;20088;-80
2021/08/28 11:57:26;;;;;;;3.00;2.35;;;;;;;;;;5002159;28;20168;-83
2021/08/28 11:59:53;;;;;;;3.58;2.35;;;;;;;;;;5002280;28;20137;-82
2021/08/28 12:02:23;;;;;;;4.70;2.42;;;;;;;;;;4985235;28;20068;-82
2021/08/28 12:04:50;;;;;;;3.58;2.10;;;;;;;;;;5003511;28;20418;-81
2021/08/28 12:07:18;;;;;;;5.18;2.55;;;;;;;;;;4985434;28;20525;-82
2021/08/28 12:09:46;;;;;;;4.93;2.60;;;;;;;;;;4983478;28;20054;-81
2021/08/28 12:12:14;;;;;;;3.85;2.58;;;;;;;;;;4998319;28;21335;-82
2021/08/28 12:14:41;;;;;;;5.07;2.38;;;;;;;;;;4999712;28;20192;-82
2021/08/28 12:17:08;;;;;;;3.47;2.10;;;;;;;;;;5000976;28;20149;-82
2021/08/28 12:19:41;;;;;;;4.88;2.30;;;;;;;;;;4986184;28;20081;-82
2021/08/28 12:22:09;;;;;;;4.57;1.92;;;;;;;;;;4980504;28;20045;-83
2021/08/28 12:24:39;;;;;;;3.03;2.15;;;;;;;;;;4980724;28;20080;-84
2021/08/28 12:27:09;;;;;;;3.20;2.00;;;;;;;;;;4989366;28;20158;-85
2021/08/28 12:29:38;;;;;;;4.95;2.47;;;;;;;;;;5008149;28;20108;-86
2021/08/28 12:32:19;;;;;;;2.72;1.70;;;;;;;;;;4991251;28;20657;-90
2021/08/28 12:34:54;;;;;;;2.75;1.90;;;;;;;;;;5006269;28;20644;-89
2021/08/28 12:37:22;;;;;;;5.38;3.17;;;;;;;;;;4989769;28;20479;-88
2021/08/28 12:39:51;;;;;;;6.68;3.28;;;;;;;;;;4990173;28;20136;-88
2021/08/28 12:42:20;;;;;;;3.42;1.80;;;;;;;;;;4991077;28;20054;-90
2021/08/28 12:44:48;;;;;;;3.97;2.35;;;;;;;;;;4992316;28;20065;-88
2021/08/28 12:47:16;;;;;;;7.18;2.80;;;;;;;;;;5010094;28;20486;-88
2021/08/28 12:49:46;;;;;;;3.58;2.20;;;;;;;;;;4994225;28;21208;-87
2021/08/28 12:52:14;;;;;;;3.50;2.40;;;;;;;;;;5009446;28;21233;-88
2021/08/28 12:54:49;;;;;;;4.00;1.95;;;;;;;;;;4993439;28;20100;-88
2021/08/28 12:57:21;;;;;;;2.65;2.08;;;;;;;;;;4991129;28;20141;-87
2021/08/28 12:59:53;;;;;;;3.75;2.30;;;;;;;;;;4990453;28;20763;-86
2021/08/28 13:02:21;;;;;;;2.55;1.30;;;;;;;;;;5006068;28;20188;-88
2021/08/28 13:04:51;;;;;;;2.13;1.30;;;;;;;;;;4992086;28;20129;-87
2021/08/28 13:07:19;;;;;;;3.00;1.90;;;;;;;;;;5004543;28;20042;-86
2021/08/28 13:10:07;;;;;;;4.45;2.42;;;;;;;;;;5007000;28;20041;-89
2021/08/28 13:12:37;;;;;;;5.63;3.25;;;;;;;;;;4991772;28;20128;-87
2021/08/28 13:15:05;;;;;;;4.35;2.58;;;;;;;;;;4992360;28;20186;-87
2021/08/28 13:17:32;;;;;;;4.95;2.78;;;;;;;;;;4990150;28;20056;-87
2021/08/28 13:20:04;;;;;;;4.53;1.88;;;;;;;;;;5011553;28;20058;-87
2021/08/28 13:22:35;;;;;;;2.45;1.27;;;;;;;;;;4989838;28;20530;-86
2021/08/28 13:25:02;;;;;;;2.22;1.50;;;;;;;;;;4990444;28;20088;-88
2021/08/28 13:27:30;;;;;;;3.15;1.55;;;;;;;;;;5006574;28;20435;-88
2021/08/28 13:30:13;;;;;;;1.90;1.38;;;;;;;;;;5007112;28;20463;-87
2021/08/28 13:33:06;;;;;;;1.63;1.25;;;;;;;;;;4987309;28;20085;-87
2021/08/28 13:35:40;;;;;;;2.35;1.50;;;;;;;;;;4990572;28;20124;-87
2021/08/28 13:38:10;;;;;;;2.40;1.85;;;;;;;;;;4990804;28;20857;-86
2021/08/28 13:40:37;;;;;;;3.70;2.10;;;;;;;;;;4990769;28;20054;-87
2021/08/28 13:43:05;;;;;;;2.08;1.45;;;;;;;;;;4993101;28;20041;-88
2021/08/28 13:45:36;;;;;;;2.88;1.70;;;;;;;;;;4994855;28;20057;-87
2021/08/28 13:48:04;;;;;;;4.40;2.42;;;;;;;;;;4993276;28;20511;-87
2021/08/28 13:50:31;;;;;;;3.55;2.58;;;;;;;;;;4991816;28;20145;-87
2021/08/28 13:52:58;;;;;;;4.00;2.13;;;;;;;;;;4988149;28;20133;-87
2021/08/28 13:55:25;;;;;;;3.78;2.28;;;;;;;;;;4990091;28;20141;-88
2021/08/28 13:57:52;;;;;;;6.00;2.67;;;;;;;;;;4992881;28;20559;-87
2021/08/28 14:00:19;;;;;;;4.00;1.88;;;;;;;;;;4990786;28;20059;-87
2021/08/28 14:02:47;;;;;;;4.32;2.10;;;;;;;;;;4994157;28;20491;-88
2021/08/28 14:05:23;;;;;;;3.53;2.10;;;;;;;;;;4989823;28;20138;-88
2021/08/28 14:07:50;;;;;;;4.72;2.08;;;;;;;;;;4988888;28;20069;-87
2021/08/28 14:10:19;;;;;;;10.48;2.10;;;;;;;;;;5010924;28;20131;-88
2021/08/28 14:12:46;;;;;;;4.75;2.22;;;;;;;;;;4989925;28;20085;-87
2021/08/28 14:15:17;;;;;;;9.65;2.40;;;;;;;;;;4989582;28;20078;-89
2021/08/28 14:17:44;;;;;;;3.40;1.95;;;;;;;;;;4988816;28;20172;-87
2021/08/28 14:20:14;;;;;;;2.78;2.13;;;;;;;;;;4988570;28;20057;-88
2021/08/28 14:22:43;;;;;;;2.65;1.92;;;;;;;;;;4999235;28;20467;-87
2021/08/28 14:25:14;;;;;;;3.05;2.35;;;;;;;;;;4978510;28;20057;-90
2021/08/28 14:27:42;;;;;;;3.88;1.95;;;;;;;;;;4988126;28;20049;-86
2021/08/28 14:30:09;;;;;;;4.10;2.53;;;;;;;;;;5011604;28;20061;-87
2021/08/28 14:32:37;;;;;;;5.78;3.80;;;;;;;;;;4993547;28;20106;-83
2021/08/28 14:35:08;;;;;;;7.03;3.53;;;;;;;;;;5013504;28;20125;-83
2021/08/28 14:37:39;;;;;;;6.63;2.47;;;;;;;;;;5010227;28;20046;-86
2021/08/28 14:40:07;;;;;;;6.88;2.95;;;;;;;;;;5009709;28;20066;-83
2021/08/28 14:42:34;;;;;;;9.88;4.90;;;;;;;;;;4992768;28;20159;-85